sensor_id;sensor_type;location;lat;lon;timestamp;P1;durP1;ratioP1;P2;durP2;ratioP2
15976;SDS011;8091;51.914;12.786;2022-07-06T00:01:47;4.75;;;2.33;;
15976;SDS011;8091;51.914;12.786;2022-07-06T00:04:14;3.50;;;2.77;;
15976;SDS011;8091;51.914;12.786;2022-07-06T00:06:40;3.50;;;2.05;;
15976;SDS011;8091;51.914;12.786;2022-07-06T00:13:57;2.80;;;2.00;;
15976;SDS011;8091;51.914;12.786;2022-07-06T00:23:39;3.40;;;1.80;;
15976;SDS011;8091;51.914;12.786;2022-07-06T00:26:05;4.80;;;1.90;;
15976;SDS011;8091;51.914;12.786;2022-07-06T00:28:31;7.00;;;2.00;;
15976;SDS011;8091;51.914;12.786;2022-07-06T00:30:56;2.95;;;1.90;;
15976;SDS011;8091;51.914;12.786;2022-07-06T00:33:22;4.63;;;1.60;;
15976;SDS011;8091;51.914;12.786;2022-07-06T00:35:48;2.60;;;1.90;;
15976;SDS011;8091;51.914;12.786;2022-07-06T00:38:14;3.70;;;1.60;;
15976;SDS011;8091;51.914;12.786;2022-07-06T00:40:39;5.55;;;1.90;;
15976;SDS011;8091;51.914;12.786;2022-07-06T00:43:05;6.10;;;1.70;;
15976;SDS011;8091;51.914;12.786;2022-07-06T00:45:31;3.00;;;1.30;;
15976;SDS011;8091;51.914;12.786;2022-07-06T00:52:48;1.80;;;1.40;;
15976;SDS011;8091;51.914;12.786;2022-07-06T00:55:40;5.50;;;2.40;;
15976;SDS011;8091;51.914;12.786;2022-07-06T00:58:08;2.70;;;1.45;;
15976;SDS011;8091;51.914;12.786;2022-07-06T01:00:34;3.20;;;1.35;;
15976;SDS011;8091;51.914;12.786;2022-07-06T01:03:00;3.50;;;1.63;;
15976;SDS011;8091;51.914;12.786;2022-07-06T01:05:25;4.20;;;1.50;;
15976;SDS011;8091;51.914;12.786;2022-07-06T01:07:52;1.42;;;1.33;;
15976;SDS011;8091;51.914;12.786;2022-07-06T01:10:18;3.75;;;1.45;;
15976;SDS011;8091;51.914;12.786;2022-07-06T01:12:45;1.42;;;1.33;;
15976;SDS011;8091;51.914;12.786;2022-07-06T01:15:13;3.47;;;1.15;;
15976;SDS011;8091;51.914;12.786;2022-07-06T01:17:40;4.65;;;1.25;;
15976;SDS011;8091;51.914;12.786;2022-07-06T01:20:16;6.25;;;1.60;;
15976;SDS011;8091;51.914;12.786;2022-07-06T01:22:47;4.35;;;1.27;;
15976;SDS011;8091;51.914;12.786;2022-07-06T01:25:14;2.43;;;1.43;;
15976;SDS011;8091;51.914;12.786;2022-07-06T01:27:40;3.30;;;1.20;;
15976;SDS011;8091;51.914;12.786;2022-07-06T01:47:08;1.50;;;1.00;;
15976;SDS011;8091;51.914;12.786;2022-07-06T01:49:34;1.60;;;1.25;;
15976;SDS011;8091;51.914;12.786;2022-07-06T01:52:00;1.40;;;1.20;;
15976;SDS011;8091;51.914;12.786;2022-07-06T01:54:25;4.50;;;1.30;;
15976;SDS011;8091;51.914;12.786;2022-07-06T01:56:51;2.80;;;1.67;;
15976;SDS011;8091;51.914;12.786;2022-07-06T01:59:16;5.30;;;1.50;;
15976;SDS011;8091;51.914;12.786;2022-07-06T02:01:42;3.20;;;1.70;;
15976;SDS011;8091;51.914;12.786;2022-07-06T02:06:33;5.00;;;1.60;;
15976;SDS011;8091;51.914;12.786;2022-07-06T02:08:58;2.00;;;1.40;;
15976;SDS011;8091;51.914;12.786;2022-07-06T02:13:49;4.00;;;1.20;;
15976;SDS011;8091;51.914;12.786;2022-07-06T02:23:31;4.80;;;1.60;;
15976;SDS011;8091;51.914;12.786;2022-07-06T02:25:57;2.15;;;1.30;;
15976;SDS011;8091;51.914;12.786;2022-07-06T02:33:13;3.90;;;1.70;;
15976;SDS011;8091;51.914;12.786;2022-07-06T02:35:39;2.60;;;1.70;;
15976;SDS011;8091;51.914;12.786;2022-07-06T02:38:07;5.43;;;1.65;;
15976;SDS011;8091;51.914;12.786;2022-07-06T02:42:59;3.80;;;1.40;;
15976;SDS011;8091;51.914;12.786;2022-07-06T02:50:16;3.60;;;1.65;;
15976;SDS011;8091;51.914;12.786;2022-07-06T02:52:41;3.60;;;1.50;;
15976;SDS011;8091;51.914;12.786;2022-07-06T02:55:07;2.53;;;1.70;;
15976;SDS011;8091;51.914;12.786;2022-07-06T02:57:33;2.08;;;1.55;;
15976;SDS011;8091;51.914;12.786;2022-07-06T02:59:59;2.92;;;1.40;;
15976;SDS011;8091;51.914;12.786;2022-07-06T03:02:24;3.30;;;1.40;;
15976;SDS011;8091;51.914;12.786;2022-07-06T03:04:50;2.63;;;1.20;;
15976;SDS011;8091;51.914;12.786;2022-07-06T03:07:15;2.95;;;1.38;;
15976;SDS011;8091;51.914;12.786;2022-07-06T03:09:41;4.87;;;1.90;;
15976;SDS011;8091;51.914;12.786;2022-07-06T03:12:07;5.47;;;1.50;;
15976;SDS011;8091;51.914;12.786;2022-07-06T03:14:33;3.50;;;1.45;;
15976;SDS011;8091;51.914;12.786;2022-07-06T03:16:59;1.65;;;1.17;;
15976;SDS011;8091;51.914;12.786;2022-07-06T03:19:24;5.10;;;1.83;;
15976;SDS011;8091;51.914;12.786;2022-07-06T03:21:50;3.20;;;1.50;;
15976;SDS011;8091;51.914;12.786;2022-07-06T03:24:15;4.03;;;1.80;;
15976;SDS011;8091;51.914;12.786;2022-07-06T03:26:41;2.20;;;1.35;;
15976;SDS011;8091;51.914;12.786;2022-07-06T03:29:07;6.60;;;1.80;;
15976;SDS011;8091;51.914;12.786;2022-07-06T03:31:32;3.15;;;1.73;;
15976;SDS011;8091;51.914;12.786;2022-07-06T03:33:58;3.60;;;1.67;;
15976;SDS011;8091;51.914;12.786;2022-07-06T03:36:24;5.15;;;2.13;;
15976;SDS011;8091;51.914;12.786;2022-07-06T03:38:49;5.18;;;1.70;;
15976;SDS011;8091;51.914;12.786;2022-07-06T03:41:15;6.37;;;1.83;;
15976;SDS011;8091;51.914;12.786;2022-07-06T03:43:40;2.55;;;1.55;;
15976;SDS011;8091;51.914;12.786;2022-07-06T03:46:06;6.78;;;1.55;;
15976;SDS011;8091;51.914;12.786;2022-07-06T03:48:31;4.45;;;1.77;;
15976;SDS011;8091;51.914;12.786;2022-07-06T03:50:57;3.55;;;1.38;;
15976;SDS011;8091;51.914;12.786;2022-07-06T03:53:22;3.83;;;1.55;;
15976;SDS011;8091;51.914;12.786;2022-07-06T03:55:49;4.05;;;1.73;;
15976;SDS011;8091;51.914;12.786;2022-07-06T03:58:33;4.18;;;1.80;;
15976;SDS011;8091;51.914;12.786;2022-07-06T04:00:59;2.28;;;1.30;;
15976;SDS011;8091;51.914;12.786;2022-07-06T04:03:24;2.97;;;1.67;;
15976;SDS011;8091;51.914;12.786;2022-07-06T04:05:50;2.58;;;1.40;;
15976;SDS011;8091;51.914;12.786;2022-07-06T04:08:16;4.43;;;1.83;;
15976;SDS011;8091;51.914;12.786;2022-07-06T04:10:41;3.17;;;1.35;;
15976;SDS011;8091;51.914;12.786;2022-07-06T04:13:07;2.87;;;1.33;;
15976;SDS011;8091;51.914;12.786;2022-07-06T04:15:33;1.42;;;1.23;;
15976;SDS011;8091;51.914;12.786;2022-07-06T04:17:58;5.27;;;1.43;;
15976;SDS011;8091;51.914;12.786;2022-07-06T04:20:24;6.28;;;2.38;;
15976;SDS011;8091;51.914;12.786;2022-07-06T04:22:53;3.75;;;1.48;;
15976;SDS011;8091;51.914;12.786;2022-07-06T04:25:19;2.97;;;1.10;;
15976;SDS011;8091;51.914;12.786;2022-07-06T04:27:44;6.88;;;1.63;;
15976;SDS011;8091;51.914;12.786;2022-07-06T04:30:10;2.67;;;1.40;;
15976;SDS011;8091;51.914;12.786;2022-07-06T04:32:36;3.70;;;1.65;;
15976;SDS011;8091;51.914;12.786;2022-07-06T04:35:03;4.80;;;1.45;;
15976;SDS011;8091;51.914;12.786;2022-07-06T04:37:30;3.60;;;1.70;;
15976;SDS011;8091;51.914;12.786;2022-07-06T04:39:55;5.43;;;1.90;;
15976;SDS011;8091;51.914;12.786;2022-07-06T04:42:21;4.75;;;1.60;;
15976;SDS011;8091;51.914;12.786;2022-07-06T04:44:47;2.67;;;1.33;;
15976;SDS011;8091;51.914;12.786;2022-07-06T04:47:12;3.42;;;1.40;;
15976;SDS011;8091;51.914;12.786;2022-07-06T04:49:38;7.45;;;1.73;;
15976;SDS011;8091;51.914;12.786;2022-07-06T04:52:04;5.35;;;1.25;;
15976;SDS011;8091;51.914;12.786;2022-07-06T04:54:30;4.68;;;1.60;;
15976;SDS011;8091;51.914;12.786;2022-07-06T04:56:56;4.63;;;1.38;;
15976;SDS011;8091;51.914;12.786;2022-07-06T04:59:21;4.18;;;1.40;;
15976;SDS011;8091;51.914;12.786;2022-07-06T05:01:47;4.78;;;1.85;;
15976;SDS011;8091;51.914;12.786;2022-07-06T05:04:13;5.55;;;1.58;;
15976;SDS011;8091;51.914;12.786;2022-07-06T05:06:44;4.90;;;1.38;;
15976;SDS011;8091;51.914;12.786;2022-07-06T05:09:10;3.28;;;1.65;;
15976;SDS011;8091;51.914;12.786;2022-07-06T05:11:37;6.60;;;1.75;;
15976;SDS011;8091;51.914;12.786;2022-07-06T05:14:03;4.50;;;1.33;;
15976;SDS011;8091;51.914;12.786;2022-07-06T05:16:29;6.15;;;1.85;;
15976;SDS011;8091;51.914;12.786;2022-07-06T05:18:54;1.75;;;1.40;;
15976;SDS011;8091;51.914;12.786;2022-07-06T05:21:20;2.28;;;1.55;;
15976;SDS011;8091;51.914;12.786;2022-07-06T05:23:45;5.38;;;1.65;;
15976;SDS011;8091;51.914;12.786;2022-07-06T05:26:11;2.00;;;1.20;;
15976;SDS011;8091;51.914;12.786;2022-07-06T05:28:36;2.80;;;1.20;;
15976;SDS011;8091;51.914;12.786;2022-07-06T05:31:02;3.45;;;1.77;;
15976;SDS011;8091;51.914;12.786;2022-07-06T05:33:28;4.95;;;1.60;;
15976;SDS011;8091;51.914;12.786;2022-07-06T05:35:53;6.53;;;1.63;;
15976;SDS011;8091;51.914;12.786;2022-07-06T05:38:19;4.80;;;1.92;;
15976;SDS011;8091;51.914;12.786;2022-07-06T05:40:45;3.63;;;1.48;;
15976;SDS011;8091;51.914;12.786;2022-07-06T05:43:11;3.90;;;1.85;;
15976;SDS011;8091;51.914;12.786;2022-07-06T05:45:37;5.65;;;1.23;;
15976;SDS011;8091;51.914;12.786;2022-07-06T05:48:03;4.25;;;1.55;;
15976;SDS011;8091;51.914;12.786;2022-07-06T05:50:47;6.82;;;1.70;;
15976;SDS011;8091;51.914;12.786;2022-07-06T05:53:13;7.85;;;1.75;;
15976;SDS011;8091;51.914;12.786;2022-07-06T05:55:38;3.83;;;1.77;;
15976;SDS011;8091;51.914;12.786;2022-07-06T05:58:04;3.58;;;1.85;;
15976;SDS011;8091;51.914;12.786;2022-07-06T06:00:30;3.58;;;0.95;;
15976;SDS011;8091;51.914;12.786;2022-07-06T06:02:55;6.72;;;1.60;;
15976;SDS011;8091;51.914;12.786;2022-07-06T06:05:23;3.70;;;1.70;;
15976;SDS011;8091;51.914;12.786;2022-07-06T06:07:49;4.93;;;1.42;;
15976;SDS011;8091;51.914;12.786;2022-07-06T06:10:16;3.08;;;1.00;;
15976;SDS011;8091;51.914;12.786;2022-07-06T06:12:43;2.70;;;1.10;;
15976;SDS011;8091;51.914;12.786;2022-07-06T06:15:16;11.10;;;2.00;;
15976;SDS011;8091;51.914;12.786;2022-07-06T06:17:44;5.00;;;1.75;;
15976;SDS011;8091;51.914;12.786;2022-07-06T06:20:12;4.18;;;1.23;;
15976;SDS011;8091;51.914;12.786;2022-07-06T06:22:49;2.83;;;1.30;;
15976;SDS011;8091;51.914;12.786;2022-07-06T06:25:17;7.53;;;1.30;;
15976;SDS011;8091;51.914;12.786;2022-07-06T06:27:52;7.43;;;1.35;;
15976;SDS011;8091;51.914;12.786;2022-07-06T06:30:18;2.80;;;1.33;;
15976;SDS011;8091;51.914;12.786;2022-07-06T06:32:43;3.08;;;1.30;;
15976;SDS011;8091;51.914;12.786;2022-07-06T06:35:09;2.83;;;1.20;;
15976;SDS011;8091;51.914;12.786;2022-07-06T06:37:35;3.05;;;1.45;;
15976;SDS011;8091;51.914;12.786;2022-07-06T06:40:05;4.20;;;1.45;;
15976;SDS011;8091;51.914;12.786;2022-07-06T06:42:38;3.70;;;1.55;;
15976;SDS011;8091;51.914;12.786;2022-07-06T06:45:07;5.53;;;1.55;;
15976;SDS011;8091;51.914;12.786;2022-07-06T06:47:33;4.28;;;1.70;;
15976;SDS011;8091;51.914;12.786;2022-07-06T06:50:00;6.82;;;1.58;;
15976;SDS011;8091;51.914;12.786;2022-07-06T06:52:29;3.85;;;1.58;;
15976;SDS011;8091;51.914;12.786;2022-07-06T06:54:54;2.38;;;1.15;;
15976;SDS011;8091;51.914;12.786;2022-07-06T06:57:20;2.30;;;1.30;;
15976;SDS011;8091;51.914;12.786;2022-07-06T06:59:50;4.95;;;1.20;;
15976;SDS011;8091;51.914;12.786;2022-07-06T07:02:15;3.50;;;1.30;;
15976;SDS011;8091;51.914;12.786;2022-07-06T07:04:41;6.20;;;1.27;;
15976;SDS011;8091;51.914;12.786;2022-07-06T07:07:10;5.25;;;1.17;;
15976;SDS011;8091;51.914;12.786;2022-07-06T07:09:36;3.83;;;1.25;;
15976;SDS011;8091;51.914;12.786;2022-07-06T07:12:01;2.53;;;1.20;;
15976;SDS011;8091;51.914;12.786;2022-07-06T07:14:32;2.47;;;1.33;;
15976;SDS011;8091;51.914;12.786;2022-07-06T07:17:00;6.38;;;1.25;;
15976;SDS011;8091;51.914;12.786;2022-07-06T07:19:26;1.85;;;1.13;;
15976;SDS011;8091;51.914;12.786;2022-07-06T07:21:52;3.97;;;1.20;;
15976;SDS011;8091;51.914;12.786;2022-07-06T07:24:18;3.92;;;1.15;;
15976;SDS011;8091;51.914;12.786;2022-07-06T07:26:46;5.20;;;1.60;;
15976;SDS011;8091;51.914;12.786;2022-07-06T07:29:14;4.63;;;1.42;;
15976;SDS011;8091;51.914;12.786;2022-07-06T07:31:40;2.20;;;1.00;;
15976;SDS011;8091;51.914;12.786;2022-07-06T07:34:06;2.95;;;1.65;;
15976;SDS011;8091;51.914;12.786;2022-07-06T07:36:32;4.18;;;1.20;;
15976;SDS011;8091;51.914;12.786;2022-07-06T07:38:57;3.33;;;1.17;;
15976;SDS011;8091;51.914;12.786;2022-07-06T07:41:23;3.78;;;1.10;;
15976;SDS011;8091;51.914;12.786;2022-07-06T07:43:48;7.35;;;1.63;;
15976;SDS011;8091;51.914;12.786;2022-07-06T07:46:14;4.80;;;1.77;;
15976;SDS011;8091;51.914;12.786;2022-07-06T07:48:41;5.28;;;1.25;;
15976;SDS011;8091;51.914;12.786;2022-07-06T07:51:06;4.55;;;1.63;;
15976;SDS011;8091;51.914;12.786;2022-07-06T07:53:32;2.20;;;1.15;;
15976;SDS011;8091;51.914;12.786;2022-07-06T07:55:58;3.05;;;1.40;;
15976;SDS011;8091;51.914;12.786;2022-07-06T07:58:24;5.68;;;1.10;;
15976;SDS011;8091;51.914;12.786;2022-07-06T08:00:49;2.47;;;0.90;;
15976;SDS011;8091;51.914;12.786;2022-07-06T08:03:15;3.33;;;1.10;;
15976;SDS011;8091;51.914;12.786;2022-07-06T08:05:41;3.13;;;1.77;;
15976;SDS011;8091;51.914;12.786;2022-07-06T08:08:06;4.03;;;1.60;;
15976;SDS011;8091;51.914;12.786;2022-07-06T08:10:32;3.22;;;1.33;;
15976;SDS011;8091;51.914;12.786;2022-07-06T08:12:58;8.73;;;1.40;;
15976;SDS011;8091;51.914;12.786;2022-07-06T08:15:24;3.15;;;1.05;;
15976;SDS011;8091;51.914;12.786;2022-07-06T08:17:50;2.92;;;1.10;;
15976;SDS011;8091;51.914;12.786;2022-07-06T08:20:16;3.58;;;1.30;;
15976;SDS011;8091;51.914;12.786;2022-07-06T08:22:41;1.92;;;1.20;;
15976;SDS011;8091;51.914;12.786;2022-07-06T08:25:07;2.10;;;1.30;;
15976;SDS011;8091;51.914;12.786;2022-07-06T08:27:33;4.75;;;1.42;;
15976;SDS011;8091;51.914;12.786;2022-07-06T08:29:59;2.72;;;1.30;;
15976;SDS011;8091;51.914;12.786;2022-07-06T08:32:25;2.35;;;1.27;;
15976;SDS011;8091;51.914;12.786;2022-07-06T08:34:51;1.45;;;0.90;;
15976;SDS011;8091;51.914;12.786;2022-07-06T08:37:20;1.92;;;0.88;;
15976;SDS011;8091;51.914;12.786;2022-07-06T08:39:46;3.60;;;1.20;;
15976;SDS011;8091;51.914;12.786;2022-07-06T08:42:11;2.08;;;1.00;;
15976;SDS011;8091;51.914;12.786;2022-07-06T08:44:39;4.93;;;1.05;;
15976;SDS011;8091;51.914;12.786;2022-07-06T08:47:06;1.80;;;0.95;;
15976;SDS011;8091;51.914;12.786;2022-07-06T08:49:32;2.35;;;1.35;;
15976;SDS011;8091;51.914;12.786;2022-07-06T08:51:59;3.15;;;1.73;;
15976;SDS011;8091;51.914;12.786;2022-07-06T08:54:27;2.67;;;1.55;;
15976;SDS011;8091;51.914;12.786;2022-07-06T08:56:53;3.10;;;1.58;;
15976;SDS011;8091;51.914;12.786;2022-07-06T08:59:19;2.15;;;1.15;;
15976;SDS011;8091;51.914;12.786;2022-07-06T09:01:45;4.10;;;1.20;;
15976;SDS011;8091;51.914;12.786;2022-07-06T09:04:12;4.53;;;1.23;;
15976;SDS011;8091;51.914;12.786;2022-07-06T09:06:42;8.40;;;1.65;;
15976;SDS011;8091;51.914;12.786;2022-07-06T09:09:10;2.88;;;1.45;;
15976;SDS011;8091;51.914;12.786;2022-07-06T09:11:42;2.10;;;0.88;;
15976;SDS011;8091;51.914;12.786;2022-07-06T09:14:08;3.97;;;1.10;;
15976;SDS011;8091;51.914;12.786;2022-07-06T09:16:34;5.50;;;1.27;;
15976;SDS011;8091;51.914;12.786;2022-07-06T09:19:00;5.70;;;1.42;;
15976;SDS011;8091;51.914;12.786;2022-07-06T09:21:27;3.53;;;1.52;;
15976;SDS011;8091;51.914;12.786;2022-07-06T09:23:58;2.65;;;1.13;;
15976;SDS011;8091;51.914;12.786;2022-07-06T09:26:25;3.20;;;1.45;;
15976;SDS011;8091;51.914;12.786;2022-07-06T09:28:51;7.57;;;1.75;;
15976;SDS011;8091;51.914;12.786;2022-07-06T09:31:20;3.67;;;1.13;;
15976;SDS011;8091;51.914;12.786;2022-07-06T09:33:53;2.58;;;0.93;;
15976;SDS011;8091;51.914;12.786;2022-07-06T09:36:38;2.15;;;1.00;;
15976;SDS011;8091;51.914;12.786;2022-07-06T09:41:50;1.90;;;0.95;;
15976;SDS011;8091;51.914;12.786;2022-07-06T09:44:24;1.02;;;0.70;;
15976;SDS011;8091;51.914;12.786;2022-07-06T09:46:58;1.35;;;1.00;;
15976;SDS011;8091;51.914;12.786;2022-07-06T09:49:26;6.03;;;0.95;;
15976;SDS011;8091;51.914;12.786;2022-07-06T09:51:54;2.53;;;0.80;;
15976;SDS011;8091;51.914;12.786;2022-07-06T09:54:21;5.38;;;1.30;;
15976;SDS011;8091;51.914;12.786;2022-07-06T09:56:48;2.05;;;1.20;;
15976;SDS011;8091;51.914;12.786;2022-07-06T09:59:21;5.60;;;1.45;;
15976;SDS011;8091;51.914;12.786;2022-07-06T10:01:50;3.30;;;1.00;;
15976;SDS011;8091;51.914;12.786;2022-07-06T10:04:22;1.85;;;0.95;;
15976;SDS011;8091;51.914;12.786;2022-07-06T10:06:48;2.38;;;0.95;;
15976;SDS011;8091;51.914;12.786;2022-07-06T10:09:14;1.88;;;1.20;;
15976;SDS011;8091;51.914;12.786;2022-07-06T10:11:44;0.80;;;0.80;;
15976;SDS011;8091;51.914;12.786;2022-07-06T10:14:17;3.85;;;0.95;;
15976;SDS011;8091;51.914;12.786;2022-07-06T10:16:46;3.38;;;0.77;;
15976;SDS011;8091;51.914;12.786;2022-07-06T10:19:13;1.35;;;0.80;;
15976;SDS011;8091;51.914;12.786;2022-07-06T10:21:40;1.77;;;0.60;;
15976;SDS011;8091;51.914;12.786;2022-07-06T10:24:06;2.78;;;1.20;;
15976;SDS011;8091;51.914;12.786;2022-07-06T10:26:33;3.38;;;1.00;;
15976;SDS011;8091;51.914;12.786;2022-07-06T10:29:02;1.70;;;0.70;;
15976;SDS011;8091;51.914;12.786;2022-07-06T10:31:29;3.28;;;1.08;;
15976;SDS011;8091;51.914;12.786;2022-07-06T10:33:56;2.38;;;0.80;;
15976;SDS011;8091;51.914;12.786;2022-07-06T10:36:23;3.38;;;1.17;;
15976;SDS011;8091;51.914;12.786;2022-07-06T10:38:50;2.05;;;0.90;;
15976;SDS011;8091;51.914;12.786;2022-07-06T10:41:17;2.28;;;0.85;;
15976;SDS011;8091;51.914;12.786;2022-07-06T10:43:46;1.85;;;0.95;;
15976;SDS011;8091;51.914;12.786;2022-07-06T10:46:16;4.28;;;0.68;;
15976;SDS011;8091;51.914;12.786;2022-07-06T10:48:44;0.90;;;0.80;;
15976;SDS011;8091;51.914;12.786;2022-07-06T10:51:12;2.30;;;0.77;;
15976;SDS011;8091;51.914;12.786;2022-07-06T10:53:46;2.05;;;0.93;;
15976;SDS011;8091;51.914;12.786;2022-07-06T10:56:35;3.08;;;0.77;;
15976;SDS011;8091;51.914;12.786;2022-07-06T10:59:10;3.17;;;0.88;;
15976;SDS011;8091;51.914;12.786;2022-07-06T11:01:40;3.40;;;0.70;;
15976;SDS011;8091;51.914;12.786;2022-07-06T11:04:30;1.63;;;0.60;;
15976;SDS011;8091;51.914;12.786;2022-07-06T11:06:57;1.85;;;0.82;;
15976;SDS011;8091;51.914;12.786;2022-07-06T11:09:55;3.33;;;0.93;;
15976;SDS011;8091;51.914;12.786;2022-07-06T11:12:22;3.95;;;0.93;;
15976;SDS011;8091;51.914;12.786;2022-07-06T11:14:48;2.85;;;0.88;;
15976;SDS011;8091;51.914;12.786;2022-07-06T11:17:15;2.60;;;1.10;;
15976;SDS011;8091;51.914;12.786;2022-07-06T11:19:57;3.63;;;1.10;;
15976;SDS011;8091;51.914;12.786;2022-07-06T11:22:33;1.80;;;0.80;;
15976;SDS011;8091;51.914;12.786;2022-07-06T11:25:02;5.72;;;1.75;;
15976;SDS011;8091;51.914;12.786;2022-07-06T11:27:28;1.90;;;1.00;;
15976;SDS011;8091;51.914;12.786;2022-07-06T11:29:55;2.67;;;0.70;;
15976;SDS011;8091;51.914;12.786;2022-07-06T11:32:24;5.47;;;1.00;;
15976;SDS011;8091;51.914;12.786;2022-07-06T11:34:51;2.53;;;1.05;;
15976;SDS011;8091;51.914;12.786;2022-07-06T11:37:17;1.05;;;0.57;;
15976;SDS011;8091;51.914;12.786;2022-07-06T11:39:44;1.02;;;0.65;;
15976;SDS011;8091;51.914;12.786;2022-07-06T11:42:14;4.18;;;1.10;;
15976;SDS011;8091;51.914;12.786;2022-07-06T11:44:44;1.45;;;0.63;;
15976;SDS011;8091;51.914;12.786;2022-07-06T11:47:11;4.50;;;0.90;;
15976;SDS011;8091;51.914;12.786;2022-07-06T11:49:38;2.33;;;1.00;;
15976;SDS011;8091;51.914;12.786;2022-07-06T11:52:06;6.72;;;1.40;;
15976;SDS011;8091;51.914;12.786;2022-07-06T11:54:33;2.35;;;0.93;;
15976;SDS011;8091;51.914;12.786;2022-07-06T11:56:59;1.00;;;0.82;;
15976;SDS011;8091;51.914;12.786;2022-07-06T11:59:29;2.45;;;1.27;;
15976;SDS011;8091;51.914;12.786;2022-07-06T12:04:33;2.50;;;0.85;;
15976;SDS011;8091;51.914;12.786;2022-07-06T12:07:03;1.83;;;0.75;;
15976;SDS011;8091;51.914;12.786;2022-07-06T12:09:33;1.52;;;0.70;;
15976;SDS011;8091;51.914;12.786;2022-07-06T12:12:01;1.52;;;0.80;;
15976;SDS011;8091;51.914;12.786;2022-07-06T12:14:29;3.28;;;0.68;;
15976;SDS011;8091;51.914;12.786;2022-07-06T12:16:56;3.15;;;0.63;;
15976;SDS011;8091;51.914;12.786;2022-07-06T12:19:27;2.05;;;0.80;;
15976;SDS011;8091;51.914;12.786;2022-07-06T12:21:52;3.63;;;0.80;;
15976;SDS011;8091;51.914;12.786;2022-07-06T12:24:28;3.10;;;1.00;;
15976;SDS011;8091;51.914;12.786;2022-07-06T12:26:56;2.58;;;1.02;;
15976;SDS011;8091;51.914;12.786;2022-07-06T12:29:22;2.30;;;0.63;;
15976;SDS011;8091;51.914;12.786;2022-07-06T12:31:49;1.50;;;0.60;;
15976;SDS011;8091;51.914;12.786;2022-07-06T12:34:18;1.52;;;0.63;;
15976;SDS011;8091;51.914;12.786;2022-07-06T12:36:48;1.40;;;0.90;;
15976;SDS011;8091;51.914;12.786;2022-07-06T12:39:22;7.95;;;1.02;;
15976;SDS011;8091;51.914;12.786;2022-07-06T12:41:50;1.40;;;0.70;;
15976;SDS011;8091;51.914;12.786;2022-07-06T12:44:24;1.83;;;0.75;;
15976;SDS011;8091;51.914;12.786;2022-07-06T12:46:50;2.90;;;1.05;;
15976;SDS011;8091;51.914;12.786;2022-07-06T12:49:27;3.25;;;1.20;;
15976;SDS011;8091;51.914;12.786;2022-07-06T12:51:57;0.88;;;0.68;;
15976;SDS011;8091;51.914;12.786;2022-07-06T12:54:24;2.80;;;0.93;;
15976;SDS011;8091;51.914;12.786;2022-07-06T12:59:29;1.85;;;0.68;;
15976;SDS011;8091;51.914;12.786;2022-07-06T13:01:56;2.92;;;0.60;;
15976;SDS011;8091;51.914;12.786;2022-07-06T13:04:22;1.48;;;0.70;;
15976;SDS011;8091;51.914;12.786;2022-07-06T13:06:49;1.17;;;0.70;;
15976;SDS011;8091;51.914;12.786;2022-07-06T13:09:15;2.95;;;0.80;;
15976;SDS011;8091;51.914;12.786;2022-07-06T13:11:41;1.83;;;0.80;;
15976;SDS011;8091;51.914;12.786;2022-07-06T13:14:07;1.50;;;0.73;;
15976;SDS011;8091;51.914;12.786;2022-07-06T13:16:34;2.15;;;0.93;;
15976;SDS011;8091;51.914;12.786;2022-07-06T13:19:01;3.60;;;1.10;;
15976;SDS011;8091;51.914;12.786;2022-07-06T13:21:27;3.97;;;0.93;;
15976;SDS011;8091;51.914;12.786;2022-07-06T13:23:52;1.17;;;0.80;;
15976;SDS011;8091;51.914;12.786;2022-07-06T13:26:18;1.75;;;0.95;;
15976;SDS011;8091;51.914;12.786;2022-07-06T13:28:44;2.55;;;0.65;;
15976;SDS011;8091;51.914;12.786;2022-07-06T13:31:09;2.75;;;0.80;;
15976;SDS011;8091;51.914;12.786;2022-07-06T13:33:36;4.18;;;0.88;;
15976;SDS011;8091;51.914;12.786;2022-07-06T13:36:01;4.43;;;0.82;;
15976;SDS011;8091;51.914;12.786;2022-07-06T13:38:27;3.22;;;0.95;;
15976;SDS011;8091;51.914;12.786;2022-07-06T13:40:53;0.90;;;0.50;;
15976;SDS011;8091;51.914;12.786;2022-07-06T13:43:19;0.82;;;0.70;;
15976;SDS011;8091;51.914;12.786;2022-07-06T13:45:45;1.17;;;0.68;;
15976;SDS011;8091;51.914;12.786;2022-07-06T13:48:11;3.03;;;1.02;;
15976;SDS011;8091;51.914;12.786;2022-07-06T13:50:37;2.85;;;0.80;;
15976;SDS011;8091;51.914;12.786;2022-07-06T13:53:03;1.17;;;0.70;;
15976;SDS011;8091;51.914;12.786;2022-07-06T13:55:29;1.48;;;0.60;;
15976;SDS011;8091;51.914;12.786;2022-07-06T13:57:55;3.45;;;1.00;;
15976;SDS011;8091;51.914;12.786;2022-07-06T14:00:20;1.15;;;0.90;;
15976;SDS011;8091;51.914;12.786;2022-07-06T14:02:46;1.70;;;0.70;;
15976;SDS011;8091;51.914;12.786;2022-07-06T14:05:12;4.25;;;1.27;;
15976;SDS011;8091;51.914;12.786;2022-07-06T14:07:37;2.67;;;1.02;;
15976;SDS011;8091;51.914;12.786;2022-07-06T14:10:03;2.10;;;0.75;;
15976;SDS011;8091;51.914;12.786;2022-07-06T14:12:29;1.55;;;0.85;;
15976;SDS011;8091;51.914;12.786;2022-07-06T14:14:55;1.30;;;0.80;;
15976;SDS011;8091;51.914;12.786;2022-07-06T14:17:20;5.00;;;0.50;;
15976;SDS011;8091;51.914;12.786;2022-07-06T14:19:47;3.45;;;1.40;;
15976;SDS011;8091;51.914;12.786;2022-07-06T14:22:13;2.45;;;1.02;;
15976;SDS011;8091;51.914;12.786;2022-07-06T14:24:42;3.72;;;1.10;;
15976;SDS011;8091;51.914;12.786;2022-07-06T14:27:07;1.27;;;0.90;;
15976;SDS011;8091;51.914;12.786;2022-07-06T14:29:33;6.82;;;1.20;;
15976;SDS011;8091;51.914;12.786;2022-07-06T14:31:59;2.88;;;0.80;;
15976;SDS011;8091;51.914;12.786;2022-07-06T14:34:28;1.27;;;0.90;;
15976;SDS011;8091;51.914;12.786;2022-07-06T14:36:53;2.35;;;1.02;;
15976;SDS011;8091;51.914;12.786;2022-07-06T14:39:20;1.38;;;0.70;;
15976;SDS011;8091;51.914;12.786;2022-07-06T14:41:46;2.45;;;1.13;;
15976;SDS011;8091;51.914;12.786;2022-07-06T14:44:11;2.30;;;0.88;;
15976;SDS011;8091;51.914;12.786;2022-07-06T14:46:37;1.00;;;0.77;;
15976;SDS011;8091;51.914;12.786;2022-07-06T14:49:03;3.67;;;1.10;;
15976;SDS011;8091;51.914;12.786;2022-07-06T14:51:28;2.20;;;0.95;;
15976;SDS011;8091;51.914;12.786;2022-07-06T14:53:54;4.68;;;0.98;;
15976;SDS011;8091;51.914;12.786;2022-07-06T14:56:19;3.58;;;0.55;;
15976;SDS011;8091;51.914;12.786;2022-07-06T14:58:45;0.55;;;0.43;;
15976;SDS011;8091;51.914;12.786;2022-07-06T15:01:11;3.60;;;0.47;;
15976;SDS011;8091;51.914;12.786;2022-07-06T15:03:39;0.30;;;0.30;;
15976;SDS011;8091;51.914;12.786;2022-07-06T15:06:04;2.40;;;0.60;;
15976;SDS011;8091;51.914;12.786;2022-07-06T15:08:30;4.68;;;1.38;;
15976;SDS011;8091;51.914;12.786;2022-07-06T15:10:56;3.58;;;1.63;;
15976;SDS011;8091;51.914;12.786;2022-07-06T15:13:21;3.10;;;0.77;;
15976;SDS011;8091;51.914;12.786;2022-07-06T15:15:47;4.22;;;1.38;;
15976;SDS011;8091;51.914;12.786;2022-07-06T15:18:13;4.30;;;1.30;;
15976;SDS011;8091;51.914;12.786;2022-07-06T15:20:39;2.38;;;0.90;;
15976;SDS011;8091;51.914;12.786;2022-07-06T15:23:04;3.22;;;0.85;;
15976;SDS011;8091;51.914;12.786;2022-07-06T15:25:30;0.95;;;0.60;;
15976;SDS011;8091;51.914;12.786;2022-07-06T15:27:55;3.97;;;1.17;;
15976;SDS011;8091;51.914;12.786;2022-07-06T15:30:21;2.55;;;0.50;;
15976;SDS011;8091;51.914;12.786;2022-07-06T15:32:48;7.45;;;1.27;;
15976;SDS011;8091;51.914;12.786;2022-07-06T15:35:14;4.90;;;1.55;;
15976;SDS011;8091;51.914;12.786;2022-07-06T15:37:40;3.33;;;1.27;;
15976;SDS011;8091;51.914;12.786;2022-07-06T15:40:12;2.42;;;0.82;;
15976;SDS011;8091;51.914;12.786;2022-07-06T15:42:40;2.33;;;0.75;;
15976;SDS011;8091;51.914;12.786;2022-07-06T15:45:06;2.72;;;0.90;;
15976;SDS011;8091;51.914;12.786;2022-07-06T15:47:32;6.45;;;1.10;;
15976;SDS011;8091;51.914;12.786;2022-07-06T15:49:58;5.82;;;1.33;;
15976;SDS011;8091;51.914;12.786;2022-07-06T15:52:23;2.35;;;1.00;;
15976;SDS011;8091;51.914;12.786;2022-07-06T15:54:49;2.15;;;1.10;;